createdAt,value
2022-12-18T00:00:24.073Z,22.23
2022-12-18T00:02:53.895Z,22.05
2022-12-18T00:05:23.154Z,24.83
2022-12-18T00:07:54.681Z,22.75
2022-12-18T00:10:21.620Z,20.63
2022-12-18T00:12:54.300Z,19.73
2022-12-18T00:15:23.773Z,23.48
2022-12-18T00:17:50.898Z,21.98
2022-12-18T00:20:23.039Z,21.67
2022-12-18T00:22:51.691Z,21.88
2022-12-18T00:25:20.089Z,21.33
2022-12-18T00:27:48.661Z,17.95
2022-12-18T00:30:15.766Z,19.80
2022-12-18T00:32:46.128Z,20.80
2022-12-18T00:35:15.016Z,20.63
2022-12-18T00:37:42.780Z,21.05
2022-12-18T00:40:10.405Z,21.77
2022-12-18T00:42:55.830Z,22.35
2022-12-18T00:45:29.248Z,25.92
2022-12-18T00:47:57.163Z,20.88
2022-12-18T00:50:27.972Z,18.98
2022-12-18T00:52:57.720Z,18.95
2022-12-18T00:55:24.512Z,19.95
2022-12-18T00:57:53.388Z,20.23
2022-12-18T01:00:20.754Z,18.92
2022-12-18T01:02:49.382Z,23.98
2022-12-18T01:05:17.551Z,24.15
2022-12-18T01:07:45.769Z,23.58
2022-12-18T01:10:14.932Z,22.98
2022-12-18T01:12:41.865Z,22.95
2022-12-18T01:15:13.229Z,22.13
2022-12-18T01:17:39.980Z,24.20
2022-12-18T01:20:10.051Z,19.52
2022-12-18T01:22:39.162Z,22.83
2022-12-18T01:25:06.698Z,21.98
2022-12-18T01:27:35.313Z,20.63
2022-12-18T01:30:11.193Z,19.13
2022-12-18T01:32:39.013Z,19.52
2022-12-18T01:35:09.994Z,19.70
2022-12-18T01:37:36.839Z,21.13
2022-12-18T01:40:58.764Z,17.77
2022-12-18T01:43:44.117Z,18.95
2022-12-18T01:46:13.486Z,19.88
2022-12-18T01:48:43.094Z,22.65
2022-12-18T01:51:12.678Z,21.90
2022-12-18T01:53:42.963Z,19.63
2022-12-18T01:56:16.192Z,20.83
2022-12-18T01:58:59.899Z,20.20
2022-12-18T02:01:27.107Z,20.42
2022-12-18T02:03:55.697Z,20.25
2022-12-18T02:06:41.783Z,17.38
2022-12-18T02:09:29.178Z,19.02
2022-12-18T02:12:20.091Z,18.55
2022-12-18T02:15:28.702Z,19.95
2022-12-18T02:18:22.671Z,18.45
2022-12-18T02:21:05.859Z,17.45
2022-12-18T02:24:25.581Z,19.30
2022-12-18T02:27:00.740Z,18.58
2022-12-18T02:29:35.252Z,19.02
2022-12-18T02:32:11.019Z,19.25
2022-12-18T02:34:41.397Z,18.27
2022-12-18T02:37:17.400Z,19.05
2022-12-18T02:39:48.553Z,20.58
2022-12-18T02:42:15.953Z,21.23
2022-12-18T02:44:51.367Z,20.25
2022-12-18T02:47:28.799Z,20.42
2022-12-18T02:50:02.267Z,21.35
2022-12-18T02:52:43.627Z,20.17
2022-12-18T02:55:41.631Z,19.52
2022-12-18T02:58:28.763Z,17.70
2022-12-18T03:01:07.416Z,19.67
2022-12-18T03:04:14.680Z,21.63
2022-12-18T03:06:51.352Z,19.17
2022-12-18T03:09:45.327Z,20.90
2022-12-18T03:12:24.824Z,19.40
2022-12-18T03:15:17.786Z,19.80
2022-12-18T03:17:54.394Z,17.50
2022-12-18T03:20:23.884Z,18.95
2022-12-18T03:22:55.819Z,21.23
2022-12-18T03:25:27.316Z,18.63
2022-12-18T03:28:01.938Z,20.83
2022-12-18T03:30:31.675Z,20.23
2022-12-18T03:33:06.903Z,19.85
2022-12-18T03:35:39.292Z,19.55
2022-12-18T03:38:07.457Z,20.55
2022-12-18T03:41:11.591Z,19.88
2022-12-18T03:43:53.582Z,17.20
2022-12-18T03:46:42.842Z,21.08
2022-12-18T03:49:24.933Z,17.40
2022-12-18T03:51:58.314Z,18.80
2022-12-18T03:54:27.717Z,18.00
2022-12-18T03:57:10.719Z,20.15
2022-12-18T03:59:40.190Z,18.88
2022-12-18T04:02:10.096Z,19.60
2022-12-18T04:04:42.059Z,21.92
2022-12-18T04:07:09.819Z,24.60
2022-12-18T04:09:39.724Z,21.52
2022-12-18T04:12:10.313Z,22.48
2022-12-18T04:14:37.066Z,24.08
2022-12-18T04:17:05.006Z,22.80
2022-12-18T04:19:33.215Z,20.98
2022-12-18T04:22:00.066Z,21.15
2022-12-18T04:24:27.308Z,22.95
2022-12-18T04:26:55.656Z,20.77
2022-12-18T04:29:22.431Z,20.83
2022-12-18T04:31:49.186Z,18.25
2022-12-18T04:34:17.685Z,21.10
2022-12-18T04:36:46.079Z,19.02
2022-12-18T04:39:13.151Z,19.13
2022-12-18T04:41:42.682Z,19.73
2022-12-18T04:44:09.774Z,20.38
2022-12-18T04:46:38.158Z,19.42
2022-12-18T04:49:05.439Z,23.23
2022-12-18T04:51:32.180Z,18.20
2022-12-18T04:53:59.344Z,20.40
2022-12-18T04:56:26.903Z,22.17
2022-12-18T04:58:57.413Z,22.30
2022-12-18T05:01:27.120Z,20.02
2022-12-18T05:03:57.911Z,20.85
2022-12-18T05:06:25.197Z,19.02
2022-12-18T05:08:52.094Z,19.02
2022-12-18T05:11:21.865Z,18.23
2022-12-18T05:13:49.893Z,20.98
2022-12-18T05:16:18.408Z,17.80
2022-12-18T05:18:46.592Z,19.15
2022-12-18T05:21:13.403Z,18.65
2022-12-18T05:23:40.738Z,19.55
2022-12-18T05:26:08.897Z,16.63
2022-12-18T05:28:38.615Z,21.27
2022-12-18T05:31:06.247Z,16.92
2022-12-18T05:33:35.860Z,20.52
2022-12-18T05:36:04.430Z,16.40
2022-12-18T05:38:33.999Z,17.88
2022-12-18T05:41:01.725Z,17.80
2022-12-18T05:43:29.860Z,19.42
2022-12-18T05:45:58.968Z,18.90
2022-12-18T05:52:17.609Z,23.30
2022-12-18T05:54:58.495Z,24.15
2022-12-18T05:57:27.185Z,21.05
2022-12-18T05:59:54.221Z,21.70
2022-12-18T06:02:22.853Z,22.38
2022-12-18T06:04:53.849Z,21.42
2022-12-18T06:07:21.379Z,21.35
2022-12-18T06:09:48.731Z,21.08
2022-12-18T06:12:15.529Z,20.30
2022-12-18T06:14:46.756Z,20.20
2022-12-18T06:17:13.646Z,22.58
2022-12-18T06:19:41.782Z,24.40
2022-12-18T06:22:09.158Z,23.67
2022-12-18T06:24:37.887Z,24.65
2022-12-18T06:27:05.311Z,25.75
2022-12-18T06:29:32.057Z,26.50
2022-12-18T06:31:58.902Z,25.75
2022-12-18T06:34:26.745Z,22.63
2022-12-18T06:36:53.605Z,28.25
2022-12-18T06:39:20.901Z,25.83
2022-12-18T06:41:50.229Z,28.25
2022-12-18T06:44:17.177Z,26.05
2022-12-18T06:46:53.838Z,25.00
2022-12-18T06:49:27.327Z,31.27
2022-12-18T06:51:57.619Z,27.23
2022-12-18T06:54:28.038Z,27.83
2022-12-18T06:56:57.875Z,26.23
2022-12-18T06:59:26.429Z,28.52
2022-12-18T07:01:55.967Z,27.00
2022-12-18T07:04:24.255Z,28.42
2022-12-18T07:06:53.638Z,28.90
2022-12-18T07:09:21.893Z,26.95
2022-12-18T07:11:50.495Z,26.55
2022-12-18T07:14:19.569Z,27.85
2022-12-18T07:16:49.823Z,29.67
2022-12-18T07:19:17.589Z,27.23
2022-12-18T07:21:48.204Z,27.23
2022-12-18T07:24:18.353Z,26.95
2022-12-18T07:26:49.689Z,23.35
2022-12-18T07:29:22.288Z,24.58
2022-12-18T07:31:50.886Z,20.85
2022-12-18T07:34:19.202Z,23.23
2022-12-18T07:36:47.834Z,21.83
2022-12-18T07:39:14.708Z,20.17
2022-12-18T07:41:47.705Z,22.33
2022-12-18T07:44:15.035Z,23.55
2022-12-18T07:46:43.238Z,24.20
2022-12-18T07:49:10.104Z,25.23
2022-12-18T07:51:39.238Z,23.38
2022-12-18T07:54:06.605Z,24.48
2022-12-18T07:56:33.521Z,25.00
2022-12-18T07:59:00.939Z,28.92
2022-12-18T08:01:28.727Z,28.95
2022-12-18T08:03:57.420Z,25.60
2022-12-18T08:06:25.209Z,26.30
2022-12-18T08:08:58.314Z,20.50
2022-12-18T08:11:28.190Z,22.98
2022-12-18T08:13:59.476Z,26.58
2022-12-18T08:16:27.612Z,23.00
2022-12-18T08:19:00.672Z,20.33
2022-12-18T08:21:30.679Z,21.98
2022-12-18T08:24:00.158Z,23.02
2022-12-18T08:26:29.679Z,22.52
2022-12-18T08:28:57.733Z,23.67
2022-12-18T08:31:26.844Z,27.88
2022-12-18T08:33:55.023Z,28.20
2022-12-18T08:36:23.761Z,27.95
2022-12-18T08:38:52.358Z,21.77
2022-12-18T08:41:19.873Z,27.60
2022-12-18T08:44:05.245Z,29.13
2022-12-18T08:46:40.930Z,28.27
2022-12-18T08:49:08.868Z,26.05
2022-12-18T08:51:41.004Z,23.25
2022-12-18T08:54:11.785Z,27.08
2022-12-18T08:56:42.566Z,26.20
2022-12-18T08:59:17.357Z,24.63
2022-12-18T09:01:48.500Z,21.17
2022-12-18T09:04:20.127Z,28.23
2022-12-18T09:06:48.655Z,25.63
2022-12-18T09:09:16.349Z,27.40
2022-12-18T09:11:44.347Z,23.40
2022-12-18T09:14:12.419Z,26.00
2022-12-18T09:16:41.097Z,24.95
2022-12-18T09:19:12.539Z,24.60
2022-12-18T09:21:47.515Z,21.60
2022-12-18T09:24:17.156Z,23.45
2022-12-18T09:26:47.545Z,24.27
2022-12-18T09:29:15.773Z,25.75
2022-12-18T09:31:43.678Z,23.55
2022-12-18T09:34:10.445Z,25.42
2022-12-18T09:36:37.707Z,21.30
2022-12-18T09:39:08.480Z,22.10
2022-12-18T09:41:38.731Z,19.60
2022-12-18T09:44:15.011Z,24.65
2022-12-18T09:46:53.524Z,23.48
2022-12-18T09:49:24.779Z,22.40
2022-12-18T09:52:03.030Z,21.67
2022-12-18T09:54:42.257Z,22.95
2022-12-18T09:57:23.348Z,22.75
2022-12-18T10:00:18.701Z,22.35
2022-12-18T10:02:47.552Z,25.85
2022-12-18T10:05:37.536Z,21.70
2022-12-18T10:08:18.430Z,28.10
2022-12-18T10:11:10.848Z,25.27
2022-12-18T10:13:50.473Z,20.67
2022-12-18T10:16:29.032Z,26.73
2022-12-18T10:19:18.985Z,23.10
2022-12-18T10:22:25.041Z,26.40
2022-12-18T10:25:18.596Z,31.02
2022-12-18T10:27:46.687Z,24.02
2022-12-18T10:30:17.669Z,28.08
2022-12-18T10:32:44.878Z,25.15
2022-12-18T10:38:16.077Z,23.75
2022-12-18T10:40:50.809Z,23.20
2022-12-18T10:43:29.128Z,26.15
2022-12-18T10:46:21.714Z,21.98
2022-12-18T10:48:53.543Z,24.10
2022-12-18T10:51:32.475Z,24.00
2022-12-18T10:54:04.665Z,26.73
2022-12-18T10:56:36.209Z,26.13
2022-12-18T10:59:06.557Z,28.05
2022-12-18T11:01:56.829Z,24.38
2022-12-18T11:04:28.359Z,26.48
2022-12-18T11:07:04.615Z,26.52
2022-12-18T11:09:37.186Z,27.15
2022-12-18T11:12:16.467Z,26.70
2022-12-18T11:14:48.978Z,28.52
2022-12-18T11:17:26.751Z,27.70
2022-12-18T11:20:02.938Z,29.13
2022-12-18T11:22:36.114Z,28.13
2022-12-18T11:28:46.086Z,33.42
2022-12-18T11:31:40.809Z,27.77
2022-12-18T11:34:31.694Z,22.42
2022-12-18T11:37:02.042Z,23.38
2022-12-18T11:39:41.950Z,22.67
2022-12-18T11:42:33.682Z,22.85
2022-12-18T11:45:14.216Z,24.63
2022-12-18T11:47:50.295Z,25.98
2022-12-18T11:50:29.424Z,22.38
2022-12-18T11:53:00.326Z,23.55
2022-12-18T11:55:49.642Z,27.67
2022-12-18T11:58:31.659Z,22.90
2022-12-18T12:01:30.216Z,24.75
2022-12-18T12:09:29.394Z,26.70
2022-12-18T12:12:02.408Z,23.38
2022-12-18T12:14:38.804Z,24.15
2022-12-18T12:17:13.384Z,24.50
2022-12-18T12:19:47.418Z,24.65
2022-12-18T12:22:31.868Z,22.48
2022-12-18T12:25:35.161Z,24.75
2022-12-18T12:28:01.916Z,24.55
2022-12-18T12:30:41.410Z,23.35
2022-12-18T12:33:24.617Z,24.30
2022-12-18T12:36:05.991Z,27.60
2022-12-18T12:38:49.768Z,26.42
2022-12-18T12:41:41.266Z,22.17
2022-12-18T12:44:14.224Z,26.73
2022-12-18T12:46:42.703Z,27.42
2022-12-18T12:49:23.448Z,26.77
2022-12-18T12:52:17.275Z,26.50
2022-12-18T12:54:46.244Z,23.23
2022-12-18T12:58:00.923Z,23.52
2022-12-18T13:00:47.673Z,28.20
2022-12-18T13:03:33.833Z,25.17
2022-12-18T13:06:10.643Z,26.38
2022-12-18T13:08:57.246Z,25.98
2022-12-18T13:12:21.793Z,28.80
2022-12-18T13:14:48.805Z,25.48
2022-12-18T13:17:22.977Z,29.95
2022-12-18T13:20:20.220Z,29.40
2022-12-18T13:22:50.105Z,23.80
2022-12-18T13:25:37.994Z,29.80
2022-12-18T13:28:21.426Z,26.50
2022-12-18T13:30:59.181Z,25.90
2022-12-18T13:33:26.804Z,24.70
2022-12-18T13:36:01.772Z,28.38
2022-12-18T13:38:38.759Z,31.42
2022-12-18T13:41:27.392Z,27.75
2022-12-18T13:43:59.215Z,28.52
2022-12-18T13:46:30.084Z,27.27
2022-12-18T13:49:04.431Z,28.92
2022-12-18T13:51:34.592Z,27.08
2022-12-18T13:54:21.334Z,28.58
2022-12-18T13:56:50.217Z,28.50
2022-12-18T13:59:26.344Z,32.90
2022-12-18T14:01:57.739Z,25.52
2022-12-18T14:04:34.803Z,26.13
2022-12-18T14:07:11.900Z,29.13
2022-12-18T14:09:47.280Z,27.40
2022-12-18T14:12:56.022Z,26.20
2022-12-18T14:15:43.625Z,27.52
2022-12-18T14:18:24.305Z,26.55
2022-12-18T14:20:56.073Z,25.02
2022-12-18T14:23:32.109Z,24.75
2022-12-18T14:26:05.136Z,27.10
2022-12-18T14:28:33.090Z,25.67
2022-12-18T14:31:00.052Z,27.90
2022-12-18T14:33:28.607Z,28.05
2022-12-18T14:36:01.682Z,26.05
2022-12-18T14:38:33.797Z,28.15
2022-12-18T14:41:03.392Z,28.23
2022-12-18T14:43:34.382Z,28.52
2022-12-18T14:46:03.486Z,28.08
2022-12-18T14:48:38.500Z,28.25
2022-12-18T14:51:19.827Z,26.70
2022-12-18T14:53:58.606Z,28.55
2022-12-18T14:56:44.023Z,26.50
2022-12-18T14:59:25.609Z,29.85
2022-12-18T15:02:05.888Z,30.80
2022-12-18T15:04:40.348Z,28.42
2022-12-18T15:07:19.652Z,29.48
2022-12-18T15:10:24.733Z,27.75
2022-12-18T15:12:58.067Z,30.83
2022-12-18T15:15:34.757Z,26.63
2022-12-18T15:18:03.405Z,30.58
2022-12-18T15:20:33.664Z,30.45
2022-12-18T15:23:00.516Z,29.77
2022-12-18T15:25:37.571Z,32.42
2022-12-18T15:28:16.546Z,30.67
2022-12-18T15:31:00.476Z,29.05
2022-12-18T15:33:32.295Z,29.33
2022-12-18T15:36:00.649Z,31.40
2022-12-18T15:38:28.003Z,32.38
2022-12-18T15:40:55.636Z,30.60
2022-12-18T15:43:35.754Z,30.42
2022-12-18T15:46:04.586Z,27.95
2022-12-18T15:48:34.849Z,30.27
2022-12-18T15:51:02.738Z,30.17
2022-12-18T15:53:33.528Z,32.35
2022-12-18T15:56:19.107Z,35.47
2022-12-18T15:58:45.911Z,33.05
2022-12-18T16:01:13.384Z,31.65
2022-12-18T16:03:40.570Z,33.13
2022-12-18T16:06:08.250Z,30.75
2022-12-18T16:08:35.541Z,30.55
2022-12-18T16:11:02.678Z,34.72
2022-12-18T16:13:29.492Z,35.00
2022-12-18T16:15:56.439Z,34.80
2022-12-18T16:18:23.245Z,36.83
2022-12-18T16:20:50.191Z,38.28
2022-12-18T16:23:17.520Z,36.90
2022-12-18T16:25:44.340Z,35.97
2022-12-18T16:28:11.154Z,40.40
2022-12-18T16:30:38.646Z,38.45
2022-12-18T16:33:05.800Z,34.33
2022-12-18T16:35:35.177Z,28.20
2022-12-18T16:38:01.957Z,36.92
2022-12-18T16:40:29.154Z,34.55
2022-12-18T16:42:55.921Z,34.63
2022-12-18T16:45:22.699Z,33.83
2022-12-18T16:47:53.730Z,34.80
2022-12-18T16:50:20.509Z,34.63
2022-12-18T16:52:47.289Z,30.48
2022-12-18T16:55:14.066Z,32.67
2022-12-18T16:57:41.157Z,32.20
2022-12-18T17:00:08.550Z,33.38
2022-12-18T17:02:38.598Z,36.75
2022-12-18T17:05:06.467Z,35.33
2022-12-18T17:07:33.262Z,32.13
2022-12-18T17:10:02.062Z,35.78
2022-12-18T17:12:29.324Z,33.35
2022-12-18T17:14:56.387Z,35.67
2022-12-18T17:17:24.093Z,33.28
2022-12-18T17:19:51.993Z,32.42
2022-12-18T17:22:18.970Z,33.30
2022-12-18T17:24:47.281Z,33.35
2022-12-18T17:27:14.211Z,34.35
2022-12-18T17:29:47.461Z,31.98
2022-12-18T17:32:15.053Z,35.70
2022-12-18T17:34:41.875Z,37.80
2022-12-18T17:37:09.082Z,41.42
2022-12-18T17:39:36.026Z,33.17
2022-12-18T17:42:03.257Z,35.60
2022-12-18T17:44:30.137Z,33.58
2022-12-18T17:46:57.360Z,32.92
2022-12-18T17:49:24.146Z,32.08
2022-12-18T17:51:51.964Z,33.40
2022-12-18T17:54:19.347Z,35.55
2022-12-18T17:56:46.278Z,36.53
2022-12-18T17:59:14.117Z,31.05
2022-12-18T18:01:44.453Z,34.13
2022-12-18T18:04:12.760Z,28.95
2022-12-18T18:06:40.076Z,34.45
2022-12-18T18:09:09.960Z,36.33
2022-12-18T18:12:05.680Z,32.50
2022-12-18T18:14:33.143Z,32.80
2022-12-18T18:17:04.323Z,33.22
2022-12-18T18:19:32.625Z,30.92
2022-12-18T18:21:59.398Z,32.35
2022-12-18T18:24:26.715Z,32.20
2022-12-18T18:26:59.500Z,35.67
2022-12-18T18:29:28.979Z,32.67
2022-12-18T18:31:56.535Z,38.78
2022-12-18T18:34:25.842Z,32.50
2022-12-18T18:36:52.802Z,34.28
2022-12-18T18:39:19.992Z,35.85
2022-12-18T18:41:50.322Z,38.50
2022-12-18T18:44:18.965Z,36.25
2022-12-18T18:46:47.894Z,38.03
2022-12-18T18:49:15.444Z,38.47
2022-12-18T18:51:42.781Z,35.42
2022-12-18T18:54:10.234Z,37.58
2022-12-18T18:57:03.778Z,39.03
2022-12-18T18:59:30.334Z,35.22
2022-12-18T19:01:58.296Z,40.30
2022-12-18T19:04:27.051Z,38.15
2022-12-18T19:06:54.374Z,37.70
2022-12-18T19:09:23.724Z,35.65
2022-12-18T19:12:09.366Z,37.85
2022-12-18T19:14:36.312Z,40.60
2022-12-18T19:17:03.048Z,38.83
2022-12-18T19:19:31.867Z,42.30
2022-12-18T19:21:58.860Z,38.42
2022-12-18T19:24:25.702Z,39.75
2022-12-18T19:26:52.993Z,35.65
2022-12-18T19:29:23.634Z,42.67
2022-12-18T19:31:50.457Z,40.50
2022-12-18T19:34:19.337Z,36.63
2022-12-18T19:36:46.603Z,45.45
2022-12-18T19:39:16.560Z,38.90
2022-12-18T19:41:44.485Z,44.72
2022-12-18T19:44:13.781Z,39.95
2022-12-18T19:46:42.335Z,39.25
2022-12-18T19:49:18.112Z,38.47
2022-12-18T19:51:45.875Z,39.45
2022-12-18T19:54:17.143Z,42.42
2022-12-18T19:56:45.087Z,40.60
2022-12-18T19:59:12.312Z,41.90
2022-12-18T20:01:39.323Z,41.25
2022-12-18T20:04:07.095Z,42.13
2022-12-18T20:06:45.245Z,41.60
2022-12-18T20:09:12.386Z,43.45
2022-12-18T20:11:42.223Z,45.45
2022-12-18T20:14:11.507Z,39.15
2022-12-18T20:16:38.790Z,40.63
2022-12-18T20:19:06.419Z,40.95
2022-12-18T20:21:33.599Z,39.92
2022-12-18T20:24:01.346Z,41.35
2022-12-18T20:26:28.516Z,47.55
2022-12-18T20:28:56.965Z,46.72
2022-12-18T20:31:24.384Z,41.60
2022-12-18T20:33:53.370Z,42.10
2022-12-18T20:36:24.564Z,43.97
2022-12-18T20:41:38.823Z,43.55
2022-12-18T20:44:21.919Z,46.95
2022-12-18T20:46:57.845Z,45.20
2022-12-18T20:49:28.354Z,46.80
2022-12-18T20:51:57.983Z,40.13
2022-12-18T20:54:34.330Z,39.80
2022-12-18T20:57:03.815Z,41.22
2022-12-18T20:59:30.687Z,53.20
2022-12-18T21:01:57.627Z,40.38
2022-12-18T21:04:26.727Z,56.13
2022-12-18T21:07:00.768Z,48.88
2022-12-18T21:09:37.587Z,46.28
2022-12-18T21:12:27.773Z,48.75
2022-12-18T21:14:54.879Z,42.67
2022-12-18T21:17:22.235Z,43.33
2022-12-18T21:19:49.741Z,39.85
2022-12-18T21:22:18.489Z,42.80
2022-12-18T21:24:45.569Z,41.78
2022-12-18T21:27:17.682Z,39.47
2022-12-18T21:29:47.107Z,40.35
2022-12-18T21:32:15.344Z,38.30
2022-12-18T21:34:47.795Z,39.30
2022-12-18T21:37:18.018Z,40.95
2022-12-18T21:39:47.206Z,40.65
2022-12-18T21:42:34.289Z,58.97
2022-12-18T21:45:01.043Z,45.42
2022-12-18T21:47:28.237Z,38.97
2022-12-18T21:49:56.933Z,42.78
2022-12-18T21:52:31.911Z,35.53
2022-12-18T21:55:07.909Z,34.05
2022-12-18T21:57:37.661Z,42.65
2022-12-18T22:00:06.102Z,37.08
2022-12-18T22:02:33.949Z,37.33
2022-12-18T22:05:00.896Z,42.50
2022-12-18T22:07:29.268Z,36.70
2022-12-18T22:09:56.585Z,42.22
2022-12-18T22:12:43.948Z,39.33
2022-12-18T22:15:18.295Z,41.00
2022-12-18T22:17:49.025Z,36.42
2022-12-18T22:20:16.281Z,38.35
2022-12-18T22:22:43.110Z,44.75
2022-12-18T22:25:10.756Z,42.10
2022-12-18T22:27:37.787Z,37.47
2022-12-18T22:30:05.672Z,42.35
2022-12-18T22:32:33.922Z,39.17
2022-12-18T22:35:07.210Z,40.83
2022-12-18T22:37:38.376Z,40.05
2022-12-18T22:40:07.473Z,45.15
2022-12-18T22:42:35.352Z,46.22
2022-12-18T22:45:02.244Z,41.58
2022-12-18T22:47:30.475Z,40.20
2022-12-18T22:49:58.090Z,40.20
2022-12-18T22:52:25.686Z,36.85
2022-12-18T22:54:53.863Z,40.03
2022-12-18T22:57:22.051Z,42.05
2022-12-18T22:59:49.643Z,38.47
2022-12-18T23:02:17.843Z,41.90
2022-12-18T23:04:45.092Z,38.88
2022-12-18T23:07:11.940Z,46.63
2022-12-18T23:09:40.438Z,39.30
2022-12-18T23:12:07.939Z,39.97
2022-12-18T23:14:34.891Z,44.92
2022-12-18T23:17:01.628Z,39.80
2022-12-18T23:19:29.518Z,40.05
2022-12-18T23:21:58.732Z,40.20
2022-12-18T23:24:26.174Z,39.00
2022-12-18T23:26:52.957Z,43.55
2022-12-18T23:29:19.858Z,40.92
2022-12-18T23:31:47.127Z,45.47
2022-12-18T23:34:14.865Z,44.88
2022-12-18T23:36:45.627Z,49.20
2022-12-18T23:39:15.435Z,40.38
2022-12-18T23:41:56.975Z,36.35
2022-12-18T23:44:24.325Z,39.75
2022-12-18T23:46:51.156Z,41.38
2022-12-18T23:49:17.913Z,47.20
2022-12-18T23:51:45.157Z,48.80
2022-12-18T23:54:12.121Z,50.78
2022-12-18T23:56:39.422Z,47.53
2022-12-18T23:59:06.166Z,49.17
